Time,TemperatureF,DewpointF,PressureIn,WindDirection,WindDirectionDegrees,WindSpeedMPH,WindSpeedGustMPH,Humidity,HourlyPrecipIn,Conditions,Clouds,dailyrainin,SoftwareType,DateUTC
2013-07-22 00:01:00,76.3,70.8,29.50,North,0,0.0,0.0,83,0.00,,,0.00,WUHU216HW,2013-07-22 05:01:00,
2013-07-22 00:06:00,76.3,70.8,29.50,North,0,0.0,0.0,83,0.00,,,0.00,WUHU216HW,2013-07-22 05:06:00,
2013-07-22 00:11:00,76.3,70.8,29.50,North,0,0.0,0.0,83,0.00,,,0.00,WUHU216HW,2013-07-22 05:11:00,
2013-07-22 00:16:00,76.3,70.8,29.50,North,0,0.0,0.0,83,0.00,,,0.00,WUHU216HW,2013-07-22 05:16:00,
2013-07-22 00:21:00,76.7,71.1,29.50,North,0,0.0,0.0,83,0.00,,,0.00,WUHU216HW,2013-07-22 05:21:00,
2013-07-22 00:26:00,76.7,71.1,29.50,North,0,0.0,0.0,83,0.00,,,0.00,WUHU216HW,2013-07-22 05:26:00,
2013-07-22 00:31:00,77.0,71.1,29.50,North,0,0.0,0.0,82,0.00,,,0.00,WUHU216HW,2013-07-22 05:31:00,
2013-07-22 00:36:00,76.9,70.9,29.50,North,0,0.0,0.0,82,0.00,,,0.00,WUHU216HW,2013-07-22 05:36:00,
2013-07-22 00:41:00,76.7,70.7,29.50,North,0,0.0,0.0,82,0.00,,,0.00,WUHU216HW,2013-07-22 05:41:00,
2013-07-22 00:46:00,76.5,70.6,29.49,North,0,0.0,0.0,82,0.00,,,0.00,WUHU216HW,2013-07-22 05:46:00,
2013-07-22 00:51:00,76.5,70.9,29.49,North,0,0.0,0.0,83,0.00,,,0.00,WUHU216HW,2013-07-22 05:51:00,
2013-07-22 00:56:00,76.7,71.5,29.49,North,0,0.0,0.0,84,0.00,,,0.00,WUHU216HW,2013-07-22 05:56:00,
2013-07-22 01:01:00,76.9,72.0,29.49,North,0,0.0,0.0,85,0.00,,,0.00,WUHU216HW,2013-07-22 06:01:00,
2013-07-22 01:06:00,76.9,71.6,29.49,North,0,0.0,0.0,84,0.00,,,0.00,WUHU216HW,2013-07-22 06:06:00,
2013-07-22 01:11:00,76.7,71.5,29.49,North,0,0.0,0.0,84,0.00,,,0.00,WUHU216HW,2013-07-22 06:11:00,
2013-07-22 01:16:00,76.7,71.5,29.49,North,0,0.0,0.0,84,0.00,,,0.00,WUHU216HW,2013-07-22 06:16:00,
2013-07-22 01:21:00,77.0,71.5,29.49,North,0,0.0,0.0,83,0.00,,,0.00,WUHU216HW,2013-07-22 06:21:00,
2013-07-22 01:26:00,77.0,71.5,29.49,North,0,0.0,0.0,83,0.00,,,0.00,WUHU216HW,2013-07-22 06:26:00,
2013-07-22 01:31:00,76.7,70.7,29.49,North,0,0.0,0.0,82,0.00,,,0.00,WUHU216HW,2013-07-22 06:31:00,
2013-07-22 01:36:00,76.7,70.7,29.49,North,0,0.0,0.0,82,0.00,,,0.00,WUHU216HW,2013-07-22 06:36:00,
2013-07-22 01:41:00,77.2,70.9,29.49,North,0,0.0,0.0,81,0.00,,,0.00,WUHU216HW,2013-07-22 06:41:00,
2013-07-22 01:46:00,77.2,70.6,29.49,North,0,0.0,0.0,80,0.00,,,0.00,WUHU216HW,2013-07-22 06:46:00,
2013-07-22 01:51:00,76.9,70.2,29.49,North,0,0.0,0.0,80,0.00,,,0.00,WUHU216HW,2013-07-22 06:51:00,
2013-07-22 01:56:00,76.5,70.3,29.48,North,0,0.0,0.0,81,0.00,,,0.00,WUHU216HW,2013-07-22 06:56:00,
2013-07-22 02:01:00,76.1,69.9,29.49,North,0,0.0,0.0,81,0.00,,,0.00,WUHU216HW,2013-07-22 07:01:00,
2013-07-22 02:06:00,75.8,69.6,29.49,North,0,0.0,0.0,81,0.00,,,0.00,WUHU216HW,2013-07-22 07:06:00,
2013-07-22 02:11:00,75.6,69.4,29.48,North,0,0.0,0.0,81,0.00,,,0.00,WUHU216HW,2013-07-22 07:11:00,
2013-07-22 02:16:00,75.2,69.5,29.48,North,0,0.0,0.0,82,0.00,,,0.00,WUHU216HW,2013-07-22 07:16:00,
2013-07-22 02:21:00,75.1,69.3,29.47,North,0,0.0,0.0,82,0.00,,,0.00,WUHU216HW,2013-07-22 07:21:00,
2013-07-22 02:26:00,75.1,69.3,29.47,North,0,0.0,0.0,82,0.00,,,0.00,WUHU216HW,2013-07-22 07:26:00,
2013-07-22 02:31:00,74.9,69.1,29.47,North,0,0.0,0.0,82,0.00,,,0.00,WUHU216HW,2013-07-22 07:31:00,
2013-07-22 02:36:00,74.7,69.0,29.47,North,0,0.0,0.0,82,0.00,,,0.00,WUHU216HW,2013-07-22 07:36:00,
2013-07-22 02:41:00,74.7,69.0,29.47,North,0,0.0,0.0,82,0.00,,,0.00,WUHU216HW,2013-07-22 07:41:00,
2013-07-22 02:46:00,74.5,68.8,29.47,North,0,0.0,0.0,82,0.00,,,0.00,WUHU216HW,2013-07-22 07:46:00,
2013-07-22 02:51:00,74.5,68.8,29.47,North,0,0.0,0.0,82,0.00,,,0.00,WUHU216HW,2013-07-22 07:51:00,
2013-07-22 02:56:00,74.5,69.0,29.47,North,0,0.0,0.0,83,0.00,,,0.00,WUHU216HW,2013-07-22 07:56:00,
2013-07-22 03:01:00,74.5,69.0,29.47,North,0,0.0,0.0,83,0.00,,,0.00,WUHU216HW,2013-07-22 08:01:00,
2013-07-22 03:06:00,74.3,68.9,29.47,North,0,0.0,0.0,83,0.00,,,0.00,WUHU216HW,2013-07-22 08:06:00,
2013-07-22 03:11:00,74.0,68.5,29.47,North,0,0.0,0.0,83,0.00,,,0.00,WUHU216HW,2013-07-22 08:11:00,
2013-07-22 03:16:00,73.8,68.3,29.47,North,0,0.0,0.0,83,0.00,,,0.00,WUHU216HW,2013-07-22 08:16:00,
2013-07-22 03:21:00,73.8,68.3,29.47,North,0,0.0,0.0,83,0.00,,,0.00,WUHU216HW,2013-07-22 08:21:00,
2013-07-22 03:26:00,73.6,68.5,29.47,North,0,0.0,0.0,84,0.00,,,0.00,WUHU216HW,2013-07-22 08:26:00,
2013-07-22 03:31:00,73.6,68.5,29.47,North,0,0.0,0.0,84,0.00,,,0.00,WUHU216HW,2013-07-22 08:31:00,
2013-07-22 03:36:00,73.4,68.3,29.46,North,0,0.0,0.0,84,0.00,,,0.00,WUHU216HW,2013-07-22 08:36:00,
2013-07-22 03:41:00,73.3,68.1,29.47,North,0,0.0,0.0,84,0.00,,,0.00,WUHU216HW,2013-07-22 08:41:00,
2013-07-22 03:46:00,73.1,68.0,29.47,North,0,0.0,0.0,84,0.00,,,0.00,WUHU216HW,2013-07-22 08:46:00,
2013-07-22 03:51:00,73.1,68.3,29.47,North,0,0.0,0.0,85,0.00,,,0.00,WUHU216HW,2013-07-22 08:51:00,
2013-07-22 03:56:00,72.9,68.1,29.46,North,0,0.0,0.0,85,0.00,,,0.00,WUHU216HW,2013-07-22 08:56:00,
2013-07-22 04:01:00,72.9,67.8,29.47,North,0,0.0,0.0,84,0.00,,,0.00,WUHU216HW,2013-07-22 09:01:00,
2013-07-22 04:06:00,72.7,67.6,29.46,North,0,0.0,0.0,84,0.00,,,0.00,WUHU216HW,2013-07-22 09:06:00,
2013-07-22 04:11:00,72.7,67.6,29.46,North,0,0.0,0.0,84,0.00,,,0.00,WUHU216HW,2013-07-22 09:11:00,
2013-07-22 04:16:00,72.4,67.2,29.46,North,0,0.0,0.0,84,0.00,,,0.00,WUHU216HW,2013-07-22 09:16:00,
2013-07-22 04:21:00,72.4,67.2,29.46,North,0,0.0,0.0,84,0.00,,,0.00,WUHU216HW,2013-07-22 09:21:00,
2013-07-22 04:26:00,72.4,67.2,29.46,North,0,0.0,0.0,84,0.00,,,0.00,WUHU216HW,2013-07-22 09:26:00,
2013-07-22 04:31:00,72.4,67.2,29.46,North,0,0.0,0.0,84,0.00,,,0.00,WUHU216HW,2013-07-22 09:31:00,
2013-07-22 04:36:00,72.2,67.1,29.46,North,0,0.0,0.0,84,0.00,,,0.00,WUHU216HW,2013-07-22 09:36:00,
2013-07-22 04:41:00,72.2,67.1,29.46,North,0,0.0,0.0,84,0.00,,,0.00,WUHU216HW,2013-07-22 09:41:00,
2013-07-22 04:46:00,72.0,66.9,29.46,North,0,0.0,0.0,84,0.00,,,0.00,WUHU216HW,2013-07-22 09:46:00,
2013-07-22 04:51:00,72.0,67.2,29.46,North,0,0.0,0.0,85,0.00,,,0.00,WUHU216HW,2013-07-22 09:51:00,
2013-07-22 04:56:00,72.0,67.2,29.46,North,0,0.0,0.0,85,0.00,,,0.00,WUHU216HW,2013-07-22 09:56:00,
2013-07-22 05:01:00,71.8,67.1,29.46,North,0,0.0,0.0,85,0.00,,,0.00,WUHU216HW,2013-07-22 10:01:00,
2013-07-22 05:06:00,71.8,67.1,29.46,North,0,0.0,0.0,85,0.00,,,0.00,WUHU216HW,2013-07-22 10:06:00,
2013-07-22 05:11:00,71.8,67.1,29.46,North,0,0.0,0.0,85,0.00,,,0.00,WUHU216HW,2013-07-22 10:11:00,
2013-07-22 05:16:00,71.6,66.9,29.46,North,0,0.0,0.0,85,0.00,,,0.00,WUHU216HW,2013-07-22 10:16:00,
2013-07-22 05:22:00,71.6,66.9,29.47,North,0,0.0,0.0,85,0.00,,,0.00,WUHU216HW,2013-07-22 10:22:00,
2013-07-22 05:27:00,71.6,66.9,29.47,North,0,0.0,0.0,85,0.00,,,0.00,WUHU216HW,2013-07-22 10:27:00,
2013-07-22 05:32:00,71.6,66.9,29.47,North,0,0.0,0.0,85,0.00,,,0.00,WUHU216HW,2013-07-22 10:32:00,
2013-07-22 05:37:00,71.6,67.2,29.47,North,0,0.0,0.0,86,0.00,,,0.00,WUHU216HW,2013-07-22 10:37:00,
2013-07-22 05:42:00,71.6,67.2,29.47,North,0,0.0,0.0,86,0.00,,,0.00,WUHU216HW,2013-07-22 10:42:00,
2013-07-22 05:47:00,71.6,67.2,29.46,North,0,0.0,0.0,86,0.00,,,0.00,WUHU216HW,2013-07-22 10:47:00,
2013-07-22 05:52:00,71.6,67.2,29.47,North,0,0.0,0.0,86,0.00,,,0.00,WUHU216HW,2013-07-22 10:52:00,
2013-07-22 05:57:00,71.6,67.2,29.47,North,0,0.0,0.0,86,0.00,,,0.00,WUHU216HW,2013-07-22 10:57:00,
2013-07-22 06:02:00,71.6,67.2,29.47,North,0,0.0,0.0,86,0.00,,,0.00,WUHU216HW,2013-07-22 11:02:00,
2013-07-22 06:07:00,71.5,67.1,29.47,North,0,0.0,0.0,86,0.00,,,0.00,WUHU216HW,2013-07-22 11:07:00,
2013-07-22 06:12:00,71.3,66.9,29.46,North,0,0.0,0.0,86,0.00,,,0.00,WUHU216HW,2013-07-22 11:12:00,
2013-07-22 06:17:00,71.3,66.9,29.46,North,0,0.0,0.0,86,0.00,,,0.00,WUHU216HW,2013-07-22 11:17:00,
2013-07-22 06:22:00,71.3,66.9,29.46,North,0,0.0,0.0,86,0.00,,,0.00,WUHU216HW,2013-07-22 11:22:00,
2013-07-22 06:27:00,71.1,66.7,29.46,North,0,0.0,0.0,86,0.00,,,0.00,WUHU216HW,2013-07-22 11:27:00,
2013-07-22 06:32:00,70.9,66.5,29.45,North,0,0.0,0.0,86,0.00,,,0.00,WUHU216HW,2013-07-22 11:32:00,
2013-07-22 06:37:00,70.9,66.5,29.45,North,0,0.0,0.0,86,0.00,,,0.00,WUHU216HW,2013-07-22 11:37:00,
2013-07-22 06:42:00,70.9,66.5,29.46,North,0,0.0,0.0,86,0.00,,,0.00,WUHU216HW,2013-07-22 11:42:00,
2013-07-22 06:47:00,70.9,66.5,29.46,North,0,0.0,0.0,86,0.00,,,0.00,WUHU216HW,2013-07-22 11:47:00,
2013-07-22 06:52:00,70.9,66.5,29.46,North,0,0.0,0.0,86,0.00,,,0.00,WUHU216HW,2013-07-22 11:52:00,
2013-07-22 06:57:00,71.1,66.7,29.46,North,0,0.0,0.0,86,0.00,,,0.00,WUHU216HW,2013-07-22 11:57:00,
2013-07-22 07:02:00,71.1,67.1,29.46,North,0,0.0,0.0,87,0.00,,,0.00,WUHU216HW,2013-07-22 12:02:00,
2013-07-22 07:07:00,71.3,67.2,29.46,North,0,0.0,0.0,87,0.00,,,0.00,WUHU216HW,2013-07-22 12:07:00,
2013-07-22 07:12:00,71.5,67.4,29.46,North,0,0.0,0.0,87,0.00,,,0.00,WUHU216HW,2013-07-22 12:12:00,
2013-07-22 07:17:00,71.6,67.6,29.46,North,0,0.0,0.0,87,0.00,,,0.00,WUHU216HW,2013-07-22 12:17:00,
2013-07-22 07:22:00,71.6,67.6,29.46,North,0,0.0,0.0,87,0.00,,,0.00,WUHU216HW,2013-07-22 12:22:00,
2013-07-22 07:27:00,71.8,67.4,29.47,North,0,0.0,0.0,86,0.00,,,0.00,WUHU216HW,2013-07-22 12:27:00,
2013-07-22 07:32:00,71.8,67.4,29.47,North,0,0.0,0.0,86,0.00,,,0.00,WUHU216HW,2013-07-22 12:32:00,
2013-07-22 07:37:00,72.0,67.6,29.47,North,0,0.0,0.0,86,0.00,,,0.00,WUHU216HW,2013-07-22 12:37:00,
2013-07-22 07:42:00,72.2,67.8,29.47,North,0,0.0,0.0,86,0.00,,,0.00,WUHU216HW,2013-07-22 12:42:00,
2013-07-22 07:47:00,72.2,67.8,29.47,North,0,0.0,0.0,86,0.00,,,0.00,WUHU216HW,2013-07-22 12:47:00,
2013-07-22 07:52:00,72.5,68.1,29.47,North,0,0.0,0.0,86,0.00,,,0.00,WUHU216HW,2013-07-22 12:52:00,
2013-07-22 07:57:00,72.9,68.5,29.47,North,0,0.0,0.0,86,0.00,,,0.00,WUHU216HW,2013-07-22 12:57:00,
2013-07-22 08:02:00,73.4,69.4,29.48,North,0,0.0,0.0,87,0.00,,,0.00,WUHU216HW,2013-07-22 13:02:00,
2013-07-22 08:07:00,74.5,70.1,29.48,North,0,0.0,0.0,86,0.00,,,0.00,WUHU216HW,2013-07-22 13:07:00,
2013-07-22 08:12:00,75.2,70.5,29.48,North,0,0.0,0.0,85,0.00,,,0.00,WUHU216HW,2013-07-22 13:12:00,
2013-07-22 08:17:00,76.0,71.2,29.48,North,0,0.0,0.0,85,0.00,,,0.00,WUHU216HW,2013-07-22 13:17:00,
2013-07-22 08:22:00,76.7,71.5,29.49,North,0,0.0,0.0,84,0.00,,,0.00,WUHU216HW,2013-07-22 13:22:00,
2013-07-22 08:27:00,78.1,72.2,29.49,North,0,0.0,0.0,82,0.00,,,0.00,WUHU216HW,2013-07-22 13:27:00,
2013-07-22 08:32:00,78.7,72.4,29.49,North,0,0.0,0.0,81,0.00,,,0.00,WUHU216HW,2013-07-22 13:32:00,
2013-07-22 08:37:00,78.8,72.5,29.49,North,0,0.0,0.0,81,0.00,,,0.00,WUHU216HW,2013-07-22 13:37:00,
2013-07-22 08:42:00,79.4,72.7,29.49,North,0,0.0,0.0,80,0.00,,,0.00,WUHU216HW,2013-07-22 13:42:00,
2013-07-22 08:47:00,80.1,72.6,29.48,North,0,0.0,0.0,78,0.00,,,0.00,WUHU216HW,2013-07-22 13:47:00,
2013-07-22 08:52:00,80.5,73.0,29.48,North,0,0.0,0.0,78,0.00,,,0.00,WUHU216HW,2013-07-22 13:52:00,
2013-07-22 08:57:00,80.8,73.4,29.49,North,0,0.0,0.0,78,0.00,,,0.00,WUHU216HW,2013-07-22 13:57:00,
2013-07-22 09:02:00,81.4,73.5,29.49,North,0,0.0,0.0,77,0.00,,,0.00,WUHU216HW,2013-07-22 14:02:00,
2013-07-22 09:07:00,82.1,74.2,29.49,North,0,0.0,0.0,77,0.00,,,0.00,WUHU216HW,2013-07-22 14:07:00,
2013-07-22 09:12:00,82.6,74.7,29.49,North,0,0.0,0.0,77,0.00,,,0.00,WUHU216HW,2013-07-22 14:12:00,
2013-07-22 09:17:00,83.0,74.6,29.49,North,0,0.0,0.0,76,0.00,,,0.00,WUHU216HW,2013-07-22 14:17:00,
2013-07-22 09:22:00,83.2,74.8,29.49,North,0,0.0,0.0,76,0.00,,,0.00,WUHU216HW,2013-07-22 14:22:00,
2013-07-22 09:27:00,83.3,75.0,29.49,North,0,0.0,0.0,76,0.00,,,0.00,WUHU216HW,2013-07-22 14:27:00,
2013-07-22 09:32:00,83.7,74.9,29.48,North,0,0.0,0.0,75,0.00,,,0.00,WUHU216HW,2013-07-22 14:32:00,
2013-07-22 09:37:00,84.1,75.2,29.48,North,0,0.0,0.0,75,0.00,,,0.00,WUHU216HW,2013-07-22 14:37:00,
2013-07-22 09:42:00,85.0,75.8,29.49,North,0,0.0,0.0,74,0.00,,,0.00,WUHU216HW,2013-07-22 14:42:00,
2013-07-22 09:47:00,85.0,75.3,29.49,North,0,0.0,0.0,73,0.00,,,0.00,WUHU216HW,2013-07-22 14:47:00,
2013-07-22 09:52:00,85.1,75.5,29.49,North,0,0.0,0.0,73,0.00,,,0.00,WUHU216HW,2013-07-22 14:52:00,
2013-07-22 09:57:00,85.5,75.9,29.49,North,0,0.0,0.0,73,0.00,,,0.00,WUHU216HW,2013-07-22 14:57:00,
2013-07-22 10:02:00,85.9,75.9,29.48,North,0,0.0,0.0,72,0.00,,,0.00,WUHU216HW,2013-07-22 15:02:00,
2013-07-22 10:07:00,86.0,76.1,29.48,North,0,0.0,0.0,72,0.00,,,0.00,WUHU216HW,2013-07-22 15:07:00,
2013-07-22 10:12:00,86.0,75.6,29.48,North,0,0.0,0.0,71,0.00,,,0.00,WUHU216HW,2013-07-22 15:12:00,
2013-07-22 10:17:00,85.9,75.9,29.48,North,0,0.0,0.0,72,0.00,,,0.00,WUHU216HW,2013-07-22 15:17:00,
2013-07-22 10:22:00,86.0,76.1,29.48,North,0,0.0,0.0,72,0.00,,,0.00,WUHU216HW,2013-07-22 15:22:00,
2013-07-22 10:27:00,85.9,75.4,29.48,North,0,0.0,0.0,71,0.00,,,0.00,WUHU216HW,2013-07-22 15:27:00,
2013-07-22 10:32:00,85.7,75.7,29.48,North,0,0.0,0.0,72,0.00,,,0.00,WUHU216HW,2013-07-22 15:32:00,
2013-07-22 10:37:00,85.9,75.9,29.47,North,0,0.0,0.0,72,0.00,,,0.00,WUHU216HW,2013-07-22 15:37:00,
2013-07-22 10:42:00,86.4,76.3,29.47,North,0,0.0,0.0,72,0.00,,,0.00,WUHU216HW,2013-07-22 15:42:00,
2013-07-22 10:47:00,86.6,76.5,29.47,North,0,0.0,0.0,72,0.00,,,0.00,WUHU216HW,2013-07-22 15:47:00,
2013-07-22 10:52:00,86.8,76.3,29.47,North,0,0.0,0.0,71,0.00,,,0.00,WUHU216HW,2013-07-22 15:52:00,
2013-07-22 10:57:00,87.1,76.6,29.47,North,0,0.0,0.0,71,0.00,,,0.00,WUHU216HW,2013-07-22 15:57:00,
2013-07-22 11:02:00,87.1,76.2,29.47,North,0,0.0,0.0,70,0.00,,,0.00,WUHU216HW,2013-07-22 16:02:00,
2013-07-22 11:07:00,87.5,76.1,29.47,North,0,0.0,0.0,69,0.00,,,0.00,WUHU216HW,2013-07-22 16:07:00,
2013-07-22 11:12:00,87.8,76.4,29.47,North,0,0.0,0.0,69,0.00,,,0.00,WUHU216HW,2013-07-22 16:12:00,
2013-07-22 11:17:00,87.8,76.0,29.47,North,0,0.0,0.0,68,0.00,,,0.00,WUHU216HW,2013-07-22 16:17:00,
2013-07-22 11:22:00,88.2,76.3,29.47,North,0,0.0,0.0,68,0.00,,,0.00,WUHU216HW,2013-07-22 16:22:00,
2013-07-22 11:27:00,88.2,76.3,29.47,North,0,0.0,0.0,68,0.00,,,0.00,WUHU216HW,2013-07-22 16:27:00,
2013-07-22 11:32:00,88.2,75.9,29.47,North,0,0.0,0.0,67,0.00,,,0.00,WUHU216HW,2013-07-22 16:32:00,
2013-07-22 11:37:00,88.4,76.5,29.47,North,0,0.0,0.0,68,0.00,,,0.00,WUHU216HW,2013-07-22 16:37:00,
2013-07-22 11:42:00,88.6,76.2,29.47,North,0,0.0,0.0,67,0.00,,,0.00,WUHU216HW,2013-07-22 16:42:00,
2013-07-22 11:47:00,88.9,76.6,29.47,North,0,0.0,0.0,67,0.00,,,0.00,WUHU216HW,2013-07-22 16:47:00,
2013-07-22 11:52:00,89.1,76.2,29.47,North,0,0.0,0.0,66,0.00,,,0.00,WUHU216HW,2013-07-22 16:52:00,
2013-07-22 11:57:00,89.3,77.0,29.47,North,0,0.0,0.0,67,0.00,,,0.00,WUHU216HW,2013-07-22 16:57:00,
2013-07-22 12:02:00,89.5,76.6,29.47,North,0,0.0,0.0,66,0.00,,,0.00,WUHU216HW,2013-07-22 17:02:00,
2013-07-22 12:07:00,89.6,76.8,29.47,North,0,0.0,0.0,66,0.00,,,0.00,WUHU216HW,2013-07-22 17:07:00,
2013-07-22 12:12:00,89.8,76.5,29.47,North,0,0.0,0.0,65,0.00,,,0.00,WUHU216HW,2013-07-22 17:12:00,
2013-07-22 12:17:00,89.8,77.0,29.47,North,0,0.0,0.0,66,0.00,,,0.00,WUHU216HW,2013-07-22 17:17:00,
2013-07-22 12:22:00,90.0,77.1,29.47,North,0,0.0,0.0,66,0.00,,,0.00,WUHU216HW,2013-07-22 17:22:00,
2013-07-22 12:27:00,90.0,76.7,29.47,North,0,0.0,0.0,65,0.00,,,0.00,WUHU216HW,2013-07-22 17:27:00,
2013-07-22 12:32:00,90.0,76.7,29.47,North,0,0.0,0.0,65,0.00,,,0.00,WUHU216HW,2013-07-22 17:32:00,
2013-07-22 12:37:00,90.0,76.7,29.47,North,0,0.0,0.0,65,0.00,,,0.00,WUHU216HW,2013-07-22 17:37:00,
2013-07-22 12:42:00,90.2,76.8,29.47,North,0,0.0,0.0,65,0.00,,,0.00,WUHU216HW,2013-07-22 17:42:00,
2013-07-22 12:47:00,90.4,77.0,29.47,North,0,0.0,0.0,65,0.00,,,0.00,WUHU216HW,2013-07-22 17:47:00,
2013-07-22 12:52:00,90.4,77.0,29.47,North,0,0.0,0.0,65,0.00,,,0.00,WUHU216HW,2013-07-22 17:52:00,
2013-07-22 12:57:00,90.4,76.5,29.47,North,0,0.0,0.0,64,0.00,,,0.00,WUHU216HW,2013-07-22 17:57:00,
2013-07-22 13:03:00,90.5,76.7,29.47,North,0,0.0,0.0,64,0.00,,,0.00,WUHU216HW,2013-07-22 18:03:00,
2013-07-22 13:08:00,90.2,75.4,29.47,North,0,0.0,0.0,62,0.00,,,0.00,WUHU216HW,2013-07-22 18:08:00,
2013-07-22 13:13:00,90.2,75.4,29.47,North,0,0.0,0.0,62,0.00,,,0.00,WUHU216HW,2013-07-22 18:13:00,
2013-07-22 13:18:00,90.7,75.9,29.47,North,0,0.0,0.0,62,0.00,,,0.00,WUHU216HW,2013-07-22 18:18:00,
2013-07-22 13:23:00,90.7,75.9,29.47,North,0,0.0,0.0,62,0.00,,,0.00,WUHU216HW,2013-07-22 18:23:00,
2013-07-22 13:28:00,90.9,76.1,29.47,North,0,0.0,0.0,62,0.00,,,0.00,WUHU216HW,2013-07-22 18:28:00,
2013-07-22 13:33:00,91.1,76.2,29.47,North,0,0.0,0.0,62,0.00,,,0.00,WUHU216HW,2013-07-22 18:33:00,
2013-07-22 13:38:00,91.4,76.5,29.47,North,0,0.0,0.0,62,0.00,,,0.00,WUHU216HW,2013-07-22 18:38:00,
2013-07-22 13:43:00,91.6,75.8,29.46,North,0,0.0,0.0,60,0.00,,,0.00,WUHU216HW,2013-07-22 18:43:00,
2013-07-22 13:48:00,92.0,76.1,29.46,North,0,0.0,0.0,60,0.00,,,0.00,WUHU216HW,2013-07-22 18:48:00,
2013-07-22 13:53:00,92.0,75.1,29.46,North,0,0.0,0.0,58,0.00,,,0.00,WUHU216HW,2013-07-22 18:53:00,
2013-07-22 13:58:00,92.0,75.1,29.46,North,0,0.0,0.0,58,0.00,,,0.00,WUHU216HW,2013-07-22 18:58:00,
2013-07-22 14:03:00,92.2,75.8,29.46,North,0,0.0,0.0,59,0.00,,,0.00,WUHU216HW,2013-07-22 19:03:00,
2013-07-22 14:08:00,92.2,75.8,29.46,North,0,0.0,0.0,59,0.00,,,0.00,WUHU216HW,2013-07-22 19:08:00,
2013-07-22 14:13:00,92.0,75.6,29.46,North,0,0.0,0.0,59,0.00,,,0.00,WUHU216HW,2013-07-22 19:13:00,
2013-07-22 14:18:00,91.6,75.3,29.46,North,0,0.0,0.0,59,0.00,,,0.00,WUHU216HW,2013-07-22 19:18:00,
2013-07-22 14:24:00,91.6,75.8,29.46,North,0,0.0,0.0,60,0.00,,,0.00,WUHU216HW,2013-07-22 19:24:00,
2013-07-22 14:29:00,91.6,75.8,29.46,North,0,0.0,0.0,60,0.00,,,0.00,WUHU216HW,2013-07-22 19:29:00,
2013-07-22 14:34:00,91.6,75.3,29.46,North,0,0.0,0.0,59,0.00,,,0.00,WUHU216HW,2013-07-22 19:34:00,
2013-07-22 14:39:00,91.8,74.9,29.46,North,0,0.0,0.0,58,0.00,,,0.00,WUHU216HW,2013-07-22 19:39:00,
2013-07-22 14:44:00,91.8,75.4,29.46,North,0,0.0,0.0,59,0.00,,,0.00,WUHU216HW,2013-07-22 19:44:00,
2013-07-22 14:49:00,92.0,75.6,29.47,North,0,0.0,0.0,59,0.00,,,0.00,WUHU216HW,2013-07-22 19:49:00,
2013-07-22 14:54:00,92.0,75.6,29.47,North,0,0.0,0.0,59,0.00,,,0.00,WUHU216HW,2013-07-22 19:54:00,
2013-07-22 14:59:00,92.0,75.6,29.47,North,0,0.0,0.0,59,0.00,,,0.00,WUHU216HW,2013-07-22 19:59:00,
2013-07-22 15:04:00,92.0,75.6,29.47,North,0,0.0,0.0,59,0.00,,,0.00,WUHU216HW,2013-07-22 20:04:00,
2013-07-22 15:09:00,92.2,75.8,29.47,North,0,0.0,0.0,59,0.00,,,0.00,WUHU216HW,2013-07-22 20:09:00,
2013-07-22 15:14:00,92.0,75.6,29.47,North,0,0.0,0.0,59,0.00,,,0.00,WUHU216HW,2013-07-22 20:14:00,
2013-07-22 15:19:00,92.0,75.6,29.47,North,0,0.0,0.0,59,0.00,,,0.00,WUHU216HW,2013-07-22 20:19:00,
2013-07-22 15:24:00,92.0,75.6,29.46,North,0,0.0,0.0,59,0.00,,,0.00,WUHU216HW,2013-07-22 20:24:00,
2013-07-22 15:29:00,92.2,75.3,29.47,North,0,0.0,0.0,58,0.00,,,0.00,WUHU216HW,2013-07-22 20:29:00,
2013-07-22 15:34:00,92.2,75.3,29.47,North,0,0.0,0.0,58,0.00,,,0.00,WUHU216HW,2013-07-22 20:34:00,
2013-07-22 15:39:00,92.0,74.5,29.46,North,0,0.0,0.0,57,0.00,,,0.00,WUHU216HW,2013-07-22 20:39:00,
2013-07-22 15:44:00,92.0,74.0,29.47,North,0,0.0,0.0,56,0.00,,,0.00,WUHU216HW,2013-07-22 20:44:00,
2013-07-22 15:49:00,92.0,74.0,29.46,North,0,0.0,0.0,56,0.00,,,0.00,WUHU216HW,2013-07-22 20:49:00,
2013-07-22 15:54:00,92.2,74.2,29.46,North,0,0.0,0.0,56,0.00,,,0.00,WUHU216HW,2013-07-22 20:54:00,
2013-07-22 15:59:00,92.2,74.2,29.46,North,0,0.0,0.0,56,0.00,,,0.00,WUHU216HW,2013-07-22 20:59:00,
2013-07-22 16:04:00,92.2,74.2,29.46,North,0,0.0,0.0,56,0.00,,,0.00,WUHU216HW,2013-07-22 21:04:00,
2013-07-22 16:09:00,91.8,74.4,29.46,North,0,0.0,0.0,57,0.00,,,0.00,WUHU216HW,2013-07-22 21:09:00,
2013-07-22 16:14:00,92.0,74.5,29.46,North,0,0.0,0.0,57,0.00,,,0.00,WUHU216HW,2013-07-22 21:14:00,
2013-07-22 16:19:00,92.0,74.5,29.46,North,0,0.0,0.0,57,0.00,,,0.00,WUHU216HW,2013-07-22 21:19:00,
2013-07-22 16:24:00,92.0,75.1,29.46,North,0,0.0,0.0,58,0.00,,,0.00,WUHU216HW,2013-07-22 21:24:00,
2013-07-22 16:29:00,92.0,75.1,29.46,North,0,0.0,0.0,58,0.00,,,0.00,WUHU216HW,2013-07-22 21:29:00,
2013-07-22 16:34:00,92.0,74.5,29.46,North,0,0.0,0.0,57,0.00,,,0.00,WUHU216HW,2013-07-22 21:34:00,
2013-07-22 16:39:00,91.8,74.4,29.46,North,0,0.0,0.0,57,0.00,,,0.00,WUHU216HW,2013-07-22 21:39:00,
2013-07-22 16:44:00,91.8,74.4,29.46,North,0,0.0,0.0,57,0.00,,,0.00,WUHU216HW,2013-07-22 21:44:00,
2013-07-22 16:49:00,91.8,74.4,29.46,North,0,0.0,0.0,57,0.00,,,0.00,WUHU216HW,2013-07-22 21:49:00,
2013-07-22 16:54:00,91.8,73.8,29.46,North,0,0.0,0.0,56,0.00,,,0.00,WUHU216HW,2013-07-22 21:54:00,
2013-07-22 16:59:00,91.8,73.8,29.46,North,0,0.0,0.0,56,0.00,,,0.00,WUHU216HW,2013-07-22 21:59:00,
2013-07-22 17:04:00,91.8,73.8,29.46,North,0,0.0,0.0,56,0.00,,,0.00,WUHU216HW,2013-07-22 22:04:00,
2013-07-22 17:09:00,92.0,74.0,29.46,North,0,0.0,0.0,56,0.00,,,0.00,WUHU216HW,2013-07-22 22:09:00,
2013-07-22 17:14:00,92.0,74.0,29.46,North,0,0.0,0.0,56,0.00,,,0.00,WUHU216HW,2013-07-22 22:14:00,
2013-07-22 17:19:00,91.8,73.8,29.46,North,0,0.0,0.0,56,0.00,,,0.00,WUHU216HW,2013-07-22 22:19:00,
2013-07-22 17:24:00,91.8,73.8,29.45,North,0,0.0,0.0,56,0.00,,,0.00,WUHU216HW,2013-07-22 22:24:00,
2013-07-22 17:29:00,91.8,73.3,29.45,North,0,0.0,0.0,55,0.00,,,0.00,WUHU216HW,2013-07-22 22:29:00,
2013-07-22 17:34:00,91.8,73.8,29.45,North,0,0.0,0.0,56,0.00,,,0.00,WUHU216HW,2013-07-22 22:34:00,
2013-07-22 17:39:00,91.8,73.8,29.45,North,0,0.0,0.0,56,0.00,,,0.00,WUHU216HW,2013-07-22 22:39:00,
2013-07-22 17:44:00,91.8,73.8,29.45,North,0,0.0,0.0,56,0.00,,,0.00,WUHU216HW,2013-07-22 22:44:00,
2013-07-22 17:49:00,91.8,73.8,29.45,North,0,0.0,0.0,56,0.00,,,0.00,WUHU216HW,2013-07-22 22:49:00,
2013-07-22 17:54:00,91.8,73.8,29.45,North,0,0.0,0.0,56,0.00,,,0.00,WUHU216HW,2013-07-22 22:54:00,
2013-07-22 17:59:00,91.6,73.6,29.44,North,0,0.0,0.0,56,0.00,,,0.00,WUHU216HW,2013-07-22 22:59:00,
2013-07-22 18:04:00,91.6,73.6,29.44,North,0,0.0,0.0,56,0.00,,,0.00,WUHU216HW,2013-07-22 23:04:00,
2013-07-22 18:09:00,91.3,73.3,29.44,North,0,0.0,0.0,56,0.00,,,0.00,WUHU216HW,2013-07-22 23:09:00,
2013-07-22 18:14:00,91.1,73.6,29.43,North,0,0.0,0.0,57,0.00,,,0.00,WUHU216HW,2013-07-22 23:14:00,
2013-07-22 18:19:00,90.7,73.4,29.44,North,0,0.0,0.0,57,0.00,,,0.00,WUHU216HW,2013-07-22 23:19:00,
2013-07-22 18:24:00,90.5,73.7,29.44,North,0,0.0,0.0,58,0.00,,,0.00,WUHU216HW,2013-07-22 23:24:00,
2013-07-22 18:29:00,90.2,73.4,29.44,North,0,0.0,0.0,58,0.00,,,0.00,WUHU216HW,2013-07-22 23:29:00,
2013-07-22 18:34:00,90.0,73.3,29.43,North,0,0.0,0.0,58,0.00,,,0.00,WUHU216HW,2013-07-22 23:34:00,
2013-07-22 18:39:00,89.6,72.9,29.43,North,0,0.0,0.0,58,0.00,,,0.00,WUHU216HW,2013-07-22 23:39:00,
2013-07-22 18:44:00,89.3,73.1,29.43,North,0,0.0,0.0,59,0.00,,,0.00,WUHU216HW,2013-07-22 23:44:00,
2013-07-22 18:49:00,89.1,73.0,29.44,North,0,0.0,0.0,59,0.00,,,0.00,WUHU216HW,2013-07-22 23:49:00,
2013-07-22 18:54:00,88.9,72.8,29.43,North,0,0.0,0.0,59,0.00,,,0.00,WUHU216HW,2013-07-22 23:54:00,
2013-07-22 18:59:00,88.9,73.4,29.42,North,0,0.0,0.0,60,0.00,,,0.00,WUHU216HW,2013-07-22 23:59:00,
2013-07-22 19:04:00,88.6,73.4,29.43,North,0,0.0,0.0,61,0.00,,,0.00,WUHU216HW,2013-07-23 00:04:00,
2013-07-22 19:09:00,88.6,73.4,29.44,North,0,0.0,0.0,61,0.00,,,0.00,WUHU216HW,2013-07-23 00:09:00,
2013-07-22 19:14:00,88.2,73.2,29.44,North,0,0.0,0.0,61,0.00,,,0.00,WUHU216HW,2013-07-23 00:14:00,
2013-07-22 19:19:00,88.0,73.0,29.43,North,0,0.0,0.0,61,0.00,,,0.00,WUHU216HW,2013-07-23 00:19:00,
2013-07-22 19:24:00,87.7,73.1,29.43,North,0,0.0,0.0,62,0.00,,,0.00,WUHU216HW,2013-07-23 00:24:00,
2013-07-22 19:29:00,87.5,72.9,29.43,North,0,0.0,0.0,62,0.00,,,0.00,WUHU216HW,2013-07-23 00:29:00,
2013-07-22 19:34:00,87.5,72.9,29.43,North,0,0.0,0.0,62,0.00,,,0.00,WUHU216HW,2013-07-23 00:34:00,
2013-07-22 19:39:00,87.5,72.9,29.44,North,0,0.0,0.0,62,0.00,,,0.00,WUHU216HW,2013-07-23 00:39:00,
2013-07-22 19:44:00,87.5,72.9,29.44,North,0,0.0,0.0,62,0.00,,,0.00,WUHU216HW,2013-07-23 00:44:00,
2013-07-22 19:49:00,87.5,72.9,29.43,North,0,0.0,0.0,62,0.00,,,0.00,WUHU216HW,2013-07-23 00:49:00,
2013-07-22 19:54:00,87.5,72.9,29.45,North,0,0.0,0.0,62,0.00,,,0.00,WUHU216HW,2013-07-23 00:54:00,
2013-07-22 19:59:00,87.3,72.7,29.44,North,0,0.0,0.0,62,0.00,,,0.00,WUHU216HW,2013-07-23 00:59:00,
2013-07-22 20:04:00,87.1,73.0,29.43,North,0,0.0,0.0,63,0.00,,,0.00,WUHU216HW,2013-07-23 01:04:00,
2013-07-22 20:09:00,87.1,73.0,29.43,North,0,0.0,0.0,63,0.00,,,0.00,WUHU216HW,2013-07-23 01:09:00,
2013-07-22 20:14:00,87.1,73.0,29.43,North,0,0.0,0.0,63,0.00,,,0.00,WUHU216HW,2013-07-23 01:14:00,
2013-07-22 20:19:00,86.9,72.8,29.44,North,0,0.0,0.0,63,0.00,,,0.00,WUHU216HW,2013-07-23 01:19:00,
2013-07-22 20:24:00,86.9,73.3,29.45,North,0,0.0,0.0,64,0.00,,,0.00,WUHU216HW,2013-07-23 01:24:00,
2013-07-22 20:29:00,86.8,73.1,29.45,North,0,0.0,0.0,64,0.00,,,0.00,WUHU216HW,2013-07-23 01:29:00,
2013-07-22 20:34:00,86.0,72.5,29.44,North,0,0.0,0.0,64,0.00,,,0.00,WUHU216HW,2013-07-23 01:34:00,
2013-07-22 20:39:00,85.9,72.7,29.45,North,0,0.0,0.0,65,0.00,,,0.00,WUHU216HW,2013-07-23 01:39:00,
2013-07-22 20:44:00,84.6,72.5,29.44,North,0,0.0,0.0,67,0.00,,,0.00,WUHU216HW,2013-07-23 01:44:00,
2013-07-22 20:49:00,84.1,72.8,29.44,North,0,0.0,0.0,69,0.01,,,0.01,WUHU216HW,2013-07-23 01:49:00,
2013-07-22 20:54:00,83.3,72.1,29.45,North,0,0.0,0.0,69,0.01,,,0.01,WUHU216HW,2013-07-23 01:54:00,
2013-07-22 20:59:00,83.2,71.9,29.45,North,0,0.0,0.0,69,0.01,,,0.01,WUHU216HW,2013-07-23 01:59:00,
2013-07-22 21:04:00,82.8,71.6,29.45,North,0,0.0,0.0,69,0.01,,,0.01,WUHU216HW,2013-07-23 02:04:00,
2013-07-22 21:09:00,82.4,71.6,29.45,North,0,0.0,0.0,70,0.01,,,0.01,WUHU216HW,2013-07-23 02:09:00,
2013-07-22 21:14:00,82.3,71.5,29.46,North,0,0.0,0.0,70,0.01,,,0.01,WUHU216HW,2013-07-23 02:14:00,
2013-07-22 21:19:00,81.9,70.8,29.45,North,0,0.0,0.0,69,0.01,,,0.01,WUHU216HW,2013-07-23 02:19:00,
2013-07-22 21:24:00,81.7,70.6,29.46,North,0,0.0,0.0,69,0.01,,,0.01,WUHU216HW,2013-07-23 02:24:00,
2013-07-22 21:29:00,81.4,70.2,29.47,North,0,0.0,0.0,69,0.01,,,0.01,WUHU216HW,2013-07-23 02:29:00,
2013-07-22 21:34:00,81.2,70.0,29.47,North,0,0.0,0.0,69,0.01,,,0.01,WUHU216HW,2013-07-23 02:34:00,
2013-07-22 21:39:00,80.8,69.8,29.47,North,0,0.0,0.0,69,0.01,,,0.01,WUHU216HW,2013-07-23 02:39:00,
2013-07-22 21:44:00,80.6,70.0,29.47,North,0,0.0,0.0,70,0.01,,,0.01,WUHU216HW,2013-07-23 02:44:00,
2013-07-22 21:49:00,80.5,69.4,29.48,North,0,0.0,0.0,69,0.00,,,0.01,WUHU216HW,2013-07-23 02:49:00,
2013-07-22 21:54:00,80.3,69.7,29.48,North,0,0.0,0.0,70,0.00,,,0.01,WUHU216HW,2013-07-23 02:54:00,
2013-07-22 21:59:00,80.1,69.5,29.49,North,0,0.0,0.0,70,0.00,,,0.01,WUHU216HW,2013-07-23 02:59:00,
2013-07-22 22:04:00,79.9,69.3,29.49,North,0,0.0,0.0,70,0.00,,,0.01,WUHU216HW,2013-07-23 03:04:00,
2013-07-22 22:09:00,79.9,69.3,29.50,North,0,0.0,0.0,70,0.00,,,0.01,WUHU216HW,2013-07-23 03:09:00,
2013-07-22 22:14:00,79.7,69.1,29.50,North,0,0.0,0.0,70,0.00,,,0.01,WUHU216HW,2013-07-23 03:14:00,
2013-07-22 22:19:00,79.7,69.1,29.50,North,0,0.0,0.0,70,0.00,,,0.01,WUHU216HW,2013-07-23 03:19:00,
2013-07-22 22:24:00,79.7,68.2,29.50,North,0,0.0,0.0,68,0.00,,,0.01,WUHU216HW,2013-07-23 03:24:00,
2013-07-22 22:29:00,79.9,67.1,29.50,North,0,0.0,0.0,65,0.00,,,0.01,WUHU216HW,2013-07-23 03:29:00,
2013-07-22 22:34:00,79.9,64.4,29.51,North,0,0.0,0.0,59,0.00,,,0.01,WUHU216HW,2013-07-23 03:34:00,
2013-07-22 22:39:00,80.1,64.0,29.51,North,0,0.0,0.0,58,0.00,,,0.01,WUHU216HW,2013-07-23 03:39:00,
2013-07-22 22:44:00,79.9,63.3,29.52,North,0,0.0,0.0,57,0.00,,,0.01,WUHU216HW,2013-07-23 03:44:00,
2013-07-22 22:49:00,79.9,63.8,29.52,North,0,0.0,0.0,58,0.00,,,0.01,WUHU216HW,2013-07-23 03:49:00,
2013-07-22 22:54:00,79.9,63.8,29.52,North,0,0.0,0.0,58,0.00,,,0.01,WUHU216HW,2013-07-23 03:54:00,
2013-07-22 22:59:00,80.1,64.0,29.52,North,0,0.0,0.0,58,0.00,,,0.01,WUHU216HW,2013-07-23 03:59:00,
2013-07-22 23:04:00,80.1,64.0,29.52,North,0,0.0,0.0,58,0.00,,,0.01,WUHU216HW,2013-07-23 04:04:00,
2013-07-22 23:09:00,79.9,63.8,29.52,North,0,0.0,0.0,58,0.00,,,0.01,WUHU216HW,2013-07-23 04:09:00,
2013-07-22 23:14:00,79.6,64.0,29.53,North,0,0.0,0.0,59,0.00,,,0.01,WUHU216HW,2013-07-23 04:14:00,
2013-07-22 23:19:00,79.4,63.9,29.53,North,0,0.0,0.0,59,0.00,,,0.01,WUHU216HW,2013-07-23 04:19:00,
2013-07-22 23:24:00,79.2,63.7,29.53,North,0,0.0,0.0,59,0.00,,,0.01,WUHU216HW,2013-07-23 04:24:00,
2013-07-22 23:29:00,79.0,63.5,29.53,North,0,0.0,0.0,59,0.00,,,0.01,WUHU216HW,2013-07-23 04:29:00,
2013-07-22 23:34:00,78.8,63.9,29.53,North,0,0.0,0.0,60,0.00,,,0.01,WUHU216HW,2013-07-23 04:34:00,
2013-07-22 23:39:00,78.8,63.9,29.53,North,0,0.0,0.0,60,0.00,,,0.01,WUHU216HW,2013-07-23 04:39:00,
2013-07-22 23:44:00,78.7,63.7,29.53,North,0,0.0,0.0,60,0.00,,,0.01,WUHU216HW,2013-07-23 04:44:00,
2013-07-22 23:49:00,78.5,63.5,29.53,North,0,0.0,0.0,60,0.00,,,0.01,WUHU216HW,2013-07-23 04:49:00,
2013-07-22 23:54:00,78.3,63.8,29.53,North,0,0.0,0.0,61,0.00,,,0.01,WUHU216HW,2013-07-23 04:54:00,
2013-07-22 23:59:00,78.1,63.6,29.53,North,0,0.0,0.0,61,0.00,,,0.01,WUHU216HW,2013-07-23 04:59:00,